sensor_id;sensor_type;location;lat;lon;timestamp;P1;durP1;ratioP1;P2;durP2;ratioP2
37609;SDS011;23457;51.966;8.230;2022-07-03T00:00:46;2.72;;;1.60;;
37609;SDS011;23457;51.966;8.230;2022-07-03T00:03:12;6.65;;;1.52;;
37609;SDS011;23457;51.966;8.230;2022-07-03T00:05:39;2.95;;;1.50;;
37609;SDS011;23457;51.966;8.230;2022-07-03T00:08:05;9.23;;;1.40;;
37609;SDS011;23457;51.966;8.230;2022-07-03T00:10:32;18.38;;;2.42;;
37609;SDS011;23457;51.966;8.230;2022-07-03T00:13:00;20.05;;;3.10;;
37609;SDS011;23457;51.966;8.230;2022-07-03T00:15:26;22.20;;;3.25;;
37609;SDS011;23457;51.966;8.230;2022-07-03T00:17:53;19.63;;;3.17;;
37609;SDS011;23457;51.966;8.230;2022-07-03T00:20:19;11.52;;;2.67;;
37609;SDS011;23457;51.966;8.230;2022-07-03T00:22:46;19.33;;;3.47;;
37609;SDS011;23457;51.966;8.230;2022-07-03T00:25:14;7.05;;;2.70;;
37609;SDS011;23457;51.966;8.230;2022-07-03T00:27:43;3.50;;;1.88;;
37609;SDS011;23457;51.966;8.230;2022-07-03T00:30:11;5.22;;;2.03;;
37609;SDS011;23457;51.966;8.230;2022-07-03T00:32:38;5.45;;;1.95;;
37609;SDS011;23457;51.966;8.230;2022-07-03T00:35:08;3.78;;;1.80;;
37609;SDS011;23457;51.966;8.230;2022-07-03T00:37:35;3.65;;;2.10;;
37609;SDS011;23457;51.966;8.230;2022-07-03T00:40:02;4.15;;;1.92;;
37609;SDS011;23457;51.966;8.230;2022-07-03T00:42:28;6.55;;;2.20;;
37609;SDS011;23457;51.966;8.230;2022-07-03T00:44:57;3.58;;;1.60;;
37609;SDS011;23457;51.966;8.230;2022-07-03T00:47:26;4.80;;;1.60;;
37609;SDS011;23457;51.966;8.230;2022-07-03T00:49:54;6.55;;;1.92;;
37609;SDS011;23457;51.966;8.230;2022-07-03T00:52:23;5.40;;;1.77;;
37609;SDS011;23457;51.966;8.230;2022-07-03T00:54:55;2.60;;;1.90;;
37609;SDS011;23457;51.966;8.230;2022-07-03T00:57:23;6.07;;;2.13;;
37609;SDS011;23457;51.966;8.230;2022-07-03T00:59:52;3.75;;;1.73;;
37609;SDS011;23457;51.966;8.230;2022-07-03T01:05:02;8.85;;;2.30;;
37609;SDS011;23457;51.966;8.230;2022-07-03T01:07:37;5.05;;;2.67;;
37609;SDS011;23457;51.966;8.230;2022-07-03T01:10:30;6.07;;;2.22;;
37609;SDS011;23457;51.966;8.230;2022-07-03T01:13:13;9.43;;;2.47;;
37609;SDS011;23457;51.966;8.230;2022-07-03T01:18:31;4.63;;;2.58;;
37609;SDS011;23457;51.966;8.230;2022-07-03T01:21:06;7.03;;;3.15;;
37609;SDS011;23457;51.966;8.230;2022-07-03T01:26:45;7.53;;;3.20;;
37609;SDS011;23457;51.966;8.230;2022-07-03T01:29:14;12.05;;;4.78;;
37609;SDS011;23457;51.966;8.230;2022-07-03T01:31:48;7.95;;;3.13;;
37609;SDS011;23457;51.966;8.230;2022-07-03T01:34:16;7.38;;;3.20;;
37609;SDS011;23457;51.966;8.230;2022-07-03T01:36:44;7.93;;;3.35;;
37609;SDS011;23457;51.966;8.230;2022-07-03T01:39:15;7.20;;;3.08;;
37609;SDS011;23457;51.966;8.230;2022-07-03T01:42:03;5.38;;;3.13;;
37609;SDS011;23457;51.966;8.230;2022-07-03T01:44:31;3.83;;;2.80;;
37609;SDS011;23457;51.966;8.230;2022-07-03T01:46:59;7.15;;;3.30;;
37609;SDS011;23457;51.966;8.230;2022-07-03T01:49:27;6.15;;;3.38;;
37609;SDS011;23457;51.966;8.230;2022-07-03T01:54:24;9.45;;;3.95;;
37609;SDS011;23457;51.966;8.230;2022-07-03T01:56:53;11.32;;;4.50;;
37609;SDS011;23457;51.966;8.230;2022-07-03T01:59:20;10.88;;;4.80;;
37609;SDS011;23457;51.966;8.230;2022-07-03T02:02:00;8.93;;;4.45;;
37609;SDS011;23457;51.966;8.230;2022-07-03T02:11:13;8.50;;;4.63;;
37609;SDS011;23457;51.966;8.230;2022-07-03T02:13:44;8.20;;;4.25;;
37609;SDS011;23457;51.966;8.230;2022-07-03T02:16:19;9.93;;;4.40;;
37609;SDS011;23457;51.966;8.230;2022-07-03T02:18:57;7.90;;;3.90;;
37609;SDS011;23457;51.966;8.230;2022-07-03T02:21:31;9.40;;;4.20;;
37609;SDS011;23457;51.966;8.230;2022-07-03T02:26:40;11.93;;;5.18;;
37609;SDS011;23457;51.966;8.230;2022-07-03T02:29:12;11.65;;;5.45;;
37609;SDS011;23457;51.966;8.230;2022-07-03T02:31:45;11.45;;;4.90;;
37609;SDS011;23457;51.966;8.230;2022-07-03T02:34:15;10.80;;;4.93;;
37609;SDS011;23457;51.966;8.230;2022-07-03T02:36:45;10.88;;;5.22;;
37609;SDS011;23457;51.966;8.230;2022-07-03T02:39:20;12.20;;;4.80;;
37609;SDS011;23457;51.966;8.230;2022-07-03T02:42:15;7.72;;;3.80;;
37609;SDS011;23457;51.966;8.230;2022-07-03T02:44:51;5.13;;;2.90;;
37609;SDS011;23457;51.966;8.230;2022-07-03T02:50:05;4.47;;;2.87;;
37609;SDS011;23457;51.966;8.230;2022-07-03T03:03:05;4.68;;;2.70;;
37609;SDS011;23457;51.966;8.230;2022-07-03T03:10:59;9.10;;;3.90;;
37609;SDS011;23457;51.966;8.230;2022-07-03T03:13:31;7.05;;;4.13;;
37609;SDS011;23457;51.966;8.230;2022-07-03T03:18:28;5.55;;;3.25;;
37609;SDS011;23457;51.966;8.230;2022-07-03T03:20:58;7.85;;;3.28;;
37609;SDS011;23457;51.966;8.230;2022-07-03T03:23:38;4.18;;;2.83;;
37609;SDS011;23457;51.966;8.230;2022-07-03T03:26:19;7.00;;;3.30;;
37609;SDS011;23457;51.966;8.230;2022-07-03T03:28:47;7.55;;;2.53;;
37609;SDS011;23457;51.966;8.230;2022-07-03T03:31:14;3.65;;;2.53;;
37609;SDS011;23457;51.966;8.230;2022-07-03T03:33:42;4.10;;;2.50;;
37609;SDS011;23457;51.966;8.230;2022-07-03T03:36:11;3.13;;;2.40;;
37609;SDS011;23457;51.966;8.230;2022-07-03T03:38:39;6.97;;;3.30;;
37609;SDS011;23457;51.966;8.230;2022-07-03T03:41:06;5.35;;;2.65;;
37609;SDS011;23457;51.966;8.230;2022-07-03T03:43:41;4.90;;;2.97;;
37609;SDS011;23457;51.966;8.230;2022-07-03T03:46:09;5.32;;;2.50;;
37609;SDS011;23457;51.966;8.230;2022-07-03T03:48:36;5.07;;;2.78;;
37609;SDS011;23457;51.966;8.230;2022-07-03T03:51:03;2.97;;;2.00;;
37609;SDS011;23457;51.966;8.230;2022-07-03T03:53:31;5.50;;;2.88;;
37609;SDS011;23457;51.966;8.230;2022-07-03T03:56:05;6.10;;;3.10;;
37609;SDS011;23457;51.966;8.230;2022-07-03T03:58:36;5.47;;;3.40;;
37609;SDS011;23457;51.966;8.230;2022-07-03T04:01:05;8.00;;;3.53;;
37609;SDS011;23457;51.966;8.230;2022-07-03T04:03:33;8.60;;;3.83;;
37609;SDS011;23457;51.966;8.230;2022-07-03T04:06:01;12.20;;;4.78;;
37609;SDS011;23457;51.966;8.230;2022-07-03T04:08:28;6.03;;;3.00;;
37609;SDS011;23457;51.966;8.230;2022-07-03T04:10:56;9.27;;;3.17;;
37609;SDS011;23457;51.966;8.230;2022-07-03T04:13:23;6.47;;;2.88;;
37609;SDS011;23457;51.966;8.230;2022-07-03T04:15:51;4.82;;;3.10;;
37609;SDS011;23457;51.966;8.230;2022-07-03T04:18:19;5.13;;;2.97;;
37609;SDS011;23457;51.966;8.230;2022-07-03T04:20:46;4.85;;;2.55;;
37609;SDS011;23457;51.966;8.230;2022-07-03T04:23:12;5.90;;;2.60;;
37609;SDS011;23457;51.966;8.230;2022-07-03T04:25:39;4.45;;;2.97;;
37609;SDS011;23457;51.966;8.230;2022-07-03T04:28:05;3.88;;;2.95;;
37609;SDS011;23457;51.966;8.230;2022-07-03T04:30:47;6.25;;;2.78;;
37609;SDS011;23457;51.966;8.230;2022-07-03T04:33:14;7.47;;;3.22;;
37609;SDS011;23457;51.966;8.230;2022-07-03T04:35:42;3.47;;;2.90;;
37609;SDS011;23457;51.966;8.230;2022-07-03T04:38:08;6.30;;;3.47;;
37609;SDS011;23457;51.966;8.230;2022-07-03T04:40:35;3.70;;;3.10;;
37609;SDS011;23457;51.966;8.230;2022-07-03T04:43:02;5.70;;;3.20;;
37609;SDS011;23457;51.966;8.230;2022-07-03T04:45:28;4.63;;;3.40;;
37609;SDS011;23457;51.966;8.230;2022-07-03T04:47:55;5.15;;;2.90;;
37609;SDS011;23457;51.966;8.230;2022-07-03T04:50:21;3.35;;;3.05;;
37609;SDS011;23457;51.966;8.230;2022-07-03T04:52:48;5.13;;;3.38;;
37609;SDS011;23457;51.966;8.230;2022-07-03T04:55:14;6.57;;;3.42;;
37609;SDS011;23457;51.966;8.230;2022-07-03T04:57:41;6.80;;;2.60;;
37609;SDS011;23457;51.966;8.230;2022-07-03T05:00:08;3.70;;;2.75;;
37609;SDS011;23457;51.966;8.230;2022-07-03T05:02:35;4.53;;;2.80;;
37609;SDS011;23457;51.966;8.230;2022-07-03T05:05:02;6.78;;;3.30;;
37609;SDS011;23457;51.966;8.230;2022-07-03T05:07:29;3.47;;;2.70;;
37609;SDS011;23457;51.966;8.230;2022-07-03T05:09:56;5.20;;;2.75;;
37609;SDS011;23457;51.966;8.230;2022-07-03T05:12:23;4.93;;;2.88;;
37609;SDS011;23457;51.966;8.230;2022-07-03T05:14:49;5.22;;;2.80;;
37609;SDS011;23457;51.966;8.230;2022-07-03T05:17:16;3.20;;;2.70;;
37609;SDS011;23457;51.966;8.230;2022-07-03T05:19:44;3.22;;;2.67;;
37609;SDS011;23457;51.966;8.230;2022-07-03T05:22:11;3.78;;;2.60;;
37609;SDS011;23457;51.966;8.230;2022-07-03T05:24:38;9.02;;;3.05;;
37609;SDS011;23457;51.966;8.230;2022-07-03T05:27:04;4.72;;;3.17;;
37609;SDS011;23457;51.966;8.230;2022-07-03T05:29:31;7.50;;;3.28;;
37609;SDS011;23457;51.966;8.230;2022-07-03T05:32:03;7.38;;;2.85;;
37609;SDS011;23457;51.966;8.230;2022-07-03T05:34:30;5.38;;;3.10;;
37609;SDS011;23457;51.966;8.230;2022-07-03T05:36:57;5.88;;;3.40;;
37609;SDS011;23457;51.966;8.230;2022-07-03T05:39:23;4.30;;;3.28;;
37609;SDS011;23457;51.966;8.230;2022-07-03T05:41:59;3.65;;;2.80;;
37609;SDS011;23457;51.966;8.230;2022-07-03T05:44:26;7.47;;;2.88;;
37609;SDS011;23457;51.966;8.230;2022-07-03T05:46:52;5.22;;;2.97;;
37609;SDS011;23457;51.966;8.230;2022-07-03T05:49:18;3.28;;;2.90;;
37609;SDS011;23457;51.966;8.230;2022-07-03T05:51:45;5.07;;;3.10;;
37609;SDS011;23457;51.966;8.230;2022-07-03T05:54:12;5.15;;;2.78;;
37609;SDS011;23457;51.966;8.230;2022-07-03T05:56:38;5.57;;;3.08;;
37609;SDS011;23457;51.966;8.230;2022-07-03T05:59:05;5.18;;;3.08;;
37609;SDS011;23457;51.966;8.230;2022-07-03T06:01:31;4.72;;;2.72;;
37609;SDS011;23457;51.966;8.230;2022-07-03T06:03:58;5.97;;;2.80;;
37609;SDS011;23457;51.966;8.230;2022-07-03T06:06:25;4.53;;;2.60;;
37609;SDS011;23457;51.966;8.230;2022-07-03T06:08:51;5.47;;;3.25;;
37609;SDS011;23457;51.966;8.230;2022-07-03T06:11:18;6.43;;;3.00;;
37609;SDS011;23457;51.966;8.230;2022-07-03T06:13:45;4.07;;;2.70;;
37609;SDS011;23457;51.966;8.230;2022-07-03T06:16:11;4.88;;;3.67;;
37609;SDS011;23457;51.966;8.230;2022-07-03T06:18:38;6.75;;;2.70;;
37609;SDS011;23457;51.966;8.230;2022-07-03T06:21:04;5.43;;;2.83;;
37609;SDS011;23457;51.966;8.230;2022-07-03T06:23:31;7.30;;;2.83;;
37609;SDS011;23457;51.966;8.230;2022-07-03T06:26:13;4.47;;;2.78;;
37609;SDS011;23457;51.966;8.230;2022-07-03T06:28:41;5.07;;;2.53;;
37609;SDS011;23457;51.966;8.230;2022-07-03T06:31:07;6.57;;;3.08;;
37609;SDS011;23457;51.966;8.230;2022-07-03T06:33:34;3.03;;;2.53;;
37609;SDS011;23457;51.966;8.230;2022-07-03T06:36:00;2.95;;;2.50;;
37609;SDS011;23457;51.966;8.230;2022-07-03T06:38:27;5.68;;;2.67;;
37609;SDS011;23457;51.966;8.230;2022-07-03T06:40:54;4.28;;;2.35;;
37609;SDS011;23457;51.966;8.230;2022-07-03T06:43:20;2.95;;;2.65;;
37609;SDS011;23457;51.966;8.230;2022-07-03T06:45:47;7.13;;;2.45;;
37609;SDS011;23457;51.966;8.230;2022-07-03T06:48:13;7.40;;;2.38;;
37609;SDS011;23457;51.966;8.230;2022-07-03T06:50:40;3.72;;;2.50;;
37609;SDS011;23457;51.966;8.230;2022-07-03T06:53:06;4.55;;;2.42;;
37609;SDS011;23457;51.966;8.230;2022-07-03T06:55:33;3.38;;;2.50;;
37609;SDS011;23457;51.966;8.230;2022-07-03T06:58:00;4.85;;;2.70;;
37609;SDS011;23457;51.966;8.230;2022-07-03T07:00:26;5.18;;;2.90;;
37609;SDS011;23457;51.966;8.230;2022-07-03T07:02:53;3.13;;;2.22;;
37609;SDS011;23457;51.966;8.230;2022-07-03T07:05:25;5.53;;;2.83;;
37609;SDS011;23457;51.966;8.230;2022-07-03T07:07:51;5.07;;;2.83;;
37609;SDS011;23457;51.966;8.230;2022-07-03T07:10:18;4.88;;;2.88;;
37609;SDS011;23457;51.966;8.230;2022-07-03T07:12:44;4.45;;;2.45;;
37609;SDS011;23457;51.966;8.230;2022-07-03T07:15:11;5.35;;;2.33;;
37609;SDS011;23457;51.966;8.230;2022-07-03T07:17:38;5.85;;;2.90;;
37609;SDS011;23457;51.966;8.230;2022-07-03T07:20:04;4.75;;;2.13;;
37609;SDS011;23457;51.966;8.230;2022-07-03T07:22:31;3.45;;;2.15;;
37609;SDS011;23457;51.966;8.230;2022-07-03T07:24:58;5.13;;;2.55;;
37609;SDS011;23457;51.966;8.230;2022-07-03T07:27:25;3.22;;;2.42;;
37609;SDS011;23457;51.966;8.230;2022-07-03T07:29:51;5.93;;;2.17;;
37609;SDS011;23457;51.966;8.230;2022-07-03T07:32:18;3.72;;;2.40;;
37609;SDS011;23457;51.966;8.230;2022-07-03T07:34:44;4.88;;;2.20;;
37609;SDS011;23457;51.966;8.230;2022-07-03T07:37:11;4.00;;;2.05;;
37609;SDS011;23457;51.966;8.230;2022-07-03T07:39:37;6.05;;;2.95;;
37609;SDS011;23457;51.966;8.230;2022-07-03T07:42:04;3.08;;;1.90;;
37609;SDS011;23457;51.966;8.230;2022-07-03T07:44:30;4.03;;;2.30;;
37609;SDS011;23457;51.966;8.230;2022-07-03T07:46:57;4.13;;;2.10;;
37609;SDS011;23457;51.966;8.230;2022-07-03T07:49:23;2.13;;;1.90;;
37609;SDS011;23457;51.966;8.230;2022-07-03T07:51:50;5.90;;;2.33;;
37609;SDS011;23457;51.966;8.230;2022-07-03T07:54:17;6.13;;;2.38;;
37609;SDS011;23457;51.966;8.230;2022-07-03T07:56:44;4.95;;;2.13;;
37609;SDS011;23457;51.966;8.230;2022-07-03T07:59:10;6.65;;;2.65;;
37609;SDS011;23457;51.966;8.230;2022-07-03T08:01:37;6.00;;;2.30;;
37609;SDS011;23457;51.966;8.230;2022-07-03T08:04:22;3.83;;;2.35;;
37609;SDS011;23457;51.966;8.230;2022-07-03T08:07:07;4.32;;;1.73;;
37609;SDS011;23457;51.966;8.230;2022-07-03T08:09:33;5.95;;;1.80;;
37609;SDS011;23457;51.966;8.230;2022-07-03T08:12:00;5.10;;;2.10;;
37609;SDS011;23457;51.966;8.230;2022-07-03T08:14:26;6.45;;;1.83;;
37609;SDS011;23457;51.966;8.230;2022-07-03T08:16:53;2.45;;;1.90;;
37609;SDS011;23457;51.966;8.230;2022-07-03T08:19:20;4.75;;;1.73;;
37609;SDS011;23457;51.966;8.230;2022-07-03T08:21:46;10.05;;;1.50;;
37609;SDS011;23457;51.966;8.230;2022-07-03T08:24:13;4.53;;;1.63;;
37609;SDS011;23457;51.966;8.230;2022-07-03T08:26:39;4.93;;;1.42;;
37609;SDS011;23457;51.966;8.230;2022-07-03T08:29:06;2.20;;;1.52;;
37609;SDS011;23457;51.966;8.230;2022-07-03T08:31:32;4.47;;;1.55;;
37609;SDS011;23457;51.966;8.230;2022-07-03T08:33:59;4.38;;;1.48;;
37609;SDS011;23457;51.966;8.230;2022-07-03T08:36:25;4.40;;;1.65;;
37609;SDS011;23457;51.966;8.230;2022-07-03T08:38:52;3.50;;;1.20;;
37609;SDS011;23457;51.966;8.230;2022-07-03T08:41:18;3.95;;;1.20;;
37609;SDS011;23457;51.966;8.230;2022-07-03T08:43:47;3.97;;;1.00;;
37609;SDS011;23457;51.966;8.230;2022-07-03T08:46:16;5.20;;;1.30;;
37609;SDS011;23457;51.966;8.230;2022-07-03T08:48:42;2.17;;;1.13;;
37609;SDS011;23457;51.966;8.230;2022-07-03T08:51:10;3.67;;;1.20;;
37609;SDS011;23457;51.966;8.230;2022-07-03T08:53:37;4.35;;;1.25;;
37609;SDS011;23457;51.966;8.230;2022-07-03T08:56:05;3.35;;;1.83;;
37609;SDS011;23457;51.966;8.230;2022-07-03T08:58:33;2.75;;;0.93;;
37609;SDS011;23457;51.966;8.230;2022-07-03T09:01:00;6.47;;;2.47;;
37609;SDS011;23457;51.966;8.230;2022-07-03T09:03:28;4.57;;;1.42;;
37609;SDS011;23457;51.966;8.230;2022-07-03T09:05:55;7.28;;;1.25;;
37609;SDS011;23457;51.966;8.230;2022-07-03T09:08:23;2.88;;;0.85;;
37609;SDS011;23457;51.966;8.230;2022-07-03T09:13:19;2.42;;;1.00;;
37609;SDS011;23457;51.966;8.230;2022-07-03T09:15:45;3.75;;;0.95;;
37609;SDS011;23457;51.966;8.230;2022-07-03T09:18:12;6.00;;;0.85;;
37609;SDS011;23457;51.966;8.230;2022-07-03T09:20:40;2.33;;;0.90;;
37609;SDS011;23457;51.966;8.230;2022-07-03T09:23:08;3.88;;;1.17;;
37609;SDS011;23457;51.966;8.230;2022-07-03T09:25:50;3.33;;;1.00;;
37609;SDS011;23457;51.966;8.230;2022-07-03T09:28:19;1.98;;;0.90;;
37609;SDS011;23457;51.966;8.230;2022-07-03T09:30:57;1.35;;;0.70;;
37609;SDS011;23457;51.966;8.230;2022-07-03T09:33:28;6.72;;;0.90;;
37609;SDS011;23457;51.966;8.230;2022-07-03T09:35:55;4.18;;;0.90;;
37609;SDS011;23457;51.966;8.230;2022-07-03T09:38:23;6.63;;;0.85;;
37609;SDS011;23457;51.966;8.230;2022-07-03T09:40:53;3.55;;;0.90;;
37609;SDS011;23457;51.966;8.230;2022-07-03T09:43:25;2.47;;;0.80;;
37609;SDS011;23457;51.966;8.230;2022-07-03T09:45:58;2.35;;;0.90;;
37609;SDS011;23457;51.966;8.230;2022-07-03T09:48:28;1.15;;;0.80;;
37609;SDS011;23457;51.966;8.230;2022-07-03T09:51:18;1.05;;;0.70;;
37609;SDS011;23457;51.966;8.230;2022-07-03T09:53:51;2.42;;;0.70;;
37609;SDS011;23457;51.966;8.230;2022-07-03T09:56:34;5.53;;;0.70;;
37609;SDS011;23457;51.966;8.230;2022-07-03T09:59:09;7.55;;;0.80;;
37609;SDS011;23457;51.966;8.230;2022-07-03T10:01:39;5.25;;;0.85;;
37609;SDS011;23457;51.966;8.230;2022-07-03T10:04:17;1.73;;;0.50;;
37609;SDS011;23457;51.966;8.230;2022-07-03T10:06:58;1.77;;;0.70;;
37609;SDS011;23457;51.966;8.230;2022-07-03T10:09:32;2.42;;;0.82;;
37609;SDS011;23457;51.966;8.230;2022-07-03T10:12:01;1.80;;;0.98;;
37609;SDS011;23457;51.966;8.230;2022-07-03T10:14:32;2.80;;;0.70;;
37609;SDS011;23457;51.966;8.230;2022-07-03T10:16:59;4.38;;;0.60;;
37609;SDS011;23457;51.966;8.230;2022-07-03T10:19:30;3.70;;;0.68;;
37609;SDS011;23457;51.966;8.230;2022-07-03T10:22:06;2.72;;;0.60;;
37609;SDS011;23457;51.966;8.230;2022-07-03T10:24:35;2.55;;;0.80;;
37609;SDS011;23457;51.966;8.230;2022-07-03T10:27:02;1.92;;;0.70;;
37609;SDS011;23457;51.966;8.230;2022-07-03T10:29:29;4.22;;;1.10;;
37609;SDS011;23457;51.966;8.230;2022-07-03T10:31:58;4.47;;;0.90;;
37609;SDS011;23457;51.966;8.230;2022-07-03T10:34:25;3.50;;;1.13;;
37609;SDS011;23457;51.966;8.230;2022-07-03T10:37:02;2.80;;;1.02;;
37609;SDS011;23457;51.966;8.230;2022-07-03T10:42:03;1.83;;;1.00;;
37609;SDS011;23457;51.966;8.230;2022-07-03T10:50:08;2.95;;;0.90;;
37609;SDS011;23457;51.966;8.230;2022-07-03T10:52:37;5.20;;;1.05;;
37609;SDS011;23457;51.966;8.230;2022-07-03T10:55:04;4.57;;;0.82;;
37609;SDS011;23457;51.966;8.230;2022-07-03T10:57:33;1.98;;;0.70;;
37609;SDS011;23457;51.966;8.230;2022-07-03T11:02:35;2.08;;;0.90;;
37609;SDS011;23457;51.966;8.230;2022-07-03T11:05:14;2.45;;;0.80;;
37609;SDS011;23457;51.966;8.230;2022-07-03T11:15:33;4.20;;;0.95;;
37609;SDS011;23457;51.966;8.230;2022-07-03T11:20:55;2.45;;;1.20;;
37609;SDS011;23457;51.966;8.230;2022-07-03T11:36:06;4.80;;;1.20;;
37609;SDS011;23457;51.966;8.230;2022-07-03T11:38:35;3.38;;;1.00;;
37609;SDS011;23457;51.966;8.230;2022-07-03T11:41:06;1.63;;;1.00;;
37609;SDS011;23457;51.966;8.230;2022-07-03T11:43:34;2.38;;;0.90;;
37609;SDS011;23457;51.966;8.230;2022-07-03T11:46:01;3.85;;;1.20;;
37609;SDS011;23457;51.966;8.230;2022-07-03T11:48:29;1.53;;;0.90;;
37609;SDS011;23457;51.966;8.230;2022-07-03T11:51:00;1.88;;;1.00;;
37609;SDS011;23457;51.966;8.230;2022-07-03T11:53:30;2.50;;;1.00;;
37609;SDS011;23457;51.966;8.230;2022-07-03T11:55:59;2.58;;;1.00;;
37609;SDS011;23457;51.966;8.230;2022-07-03T11:59:11;3.58;;;1.20;;
37609;SDS011;23457;51.966;8.230;2022-07-03T12:03:48;1.90;;;0.95;;
37609;SDS011;23457;51.966;8.230;2022-07-03T12:06:15;3.13;;;0.73;;
37609;SDS011;23457;51.966;8.230;2022-07-03T12:08:43;2.28;;;0.80;;
37609;SDS011;23457;51.966;8.230;2022-07-03T12:11:13;1.23;;;0.98;;
37609;SDS011;23457;51.966;8.230;2022-07-03T12:13:41;4.18;;;0.82;;
37609;SDS011;23457;51.966;8.230;2022-07-03T12:21:13;3.25;;;1.02;;
37609;SDS011;23457;51.966;8.230;2022-07-03T12:26:07;4.68;;;0.90;;
37609;SDS011;23457;51.966;8.230;2022-07-03T12:28:34;1.52;;;0.70;;
37609;SDS011;23457;51.966;8.230;2022-07-03T12:31:00;2.83;;;1.10;;
37609;SDS011;23457;51.966;8.230;2022-07-03T12:33:28;2.20;;;1.00;;
37609;SDS011;23457;51.966;8.230;2022-07-03T12:36:06;3.22;;;1.00;;
37609;SDS011;23457;51.966;8.230;2022-07-03T12:38:37;1.85;;;0.98;;
37609;SDS011;23457;51.966;8.230;2022-07-03T12:41:12;2.47;;;1.00;;
37609;SDS011;23457;51.966;8.230;2022-07-03T12:43:39;4.90;;;1.10;;
37609;SDS011;23457;51.966;8.230;2022-07-03T12:48:53;4.40;;;1.20;;
37609;SDS011;23457;51.966;8.230;2022-07-03T12:54:15;3.97;;;1.20;;
37609;SDS011;23457;51.966;8.230;2022-07-03T13:00:08;2.22;;;1.15;;
37609;SDS011;23457;51.966;8.230;2022-07-03T13:02:46;3.88;;;1.17;;
37609;SDS011;23457;51.966;8.230;2022-07-03T13:05:15;8.38;;;1.30;;
37609;SDS011;23457;51.966;8.230;2022-07-03T13:07:43;4.25;;;1.30;;
37609;SDS011;23457;51.966;8.230;2022-07-03T13:10:11;2.22;;;1.10;;
37609;SDS011;23457;51.966;8.230;2022-07-03T13:12:47;3.42;;;1.45;;
37609;SDS011;23457;51.966;8.230;2022-07-03T13:15:17;1.27;;;1.10;;
37609;SDS011;23457;51.966;8.230;2022-07-03T13:20:21;6.63;;;1.45;;
37609;SDS011;23457;51.966;8.230;2022-07-03T13:22:56;4.00;;;1.20;;
37609;SDS011;23457;51.966;8.230;2022-07-03T13:25:24;4.07;;;1.50;;
37609;SDS011;23457;51.966;8.230;2022-07-03T13:27:51;8.15;;;1.30;;
37609;SDS011;23457;51.966;8.230;2022-07-03T13:30:18;3.58;;;1.55;;
37609;SDS011;23457;51.966;8.230;2022-07-03T13:32:45;3.00;;;1.23;;
37609;SDS011;23457;51.966;8.230;2022-07-03T13:35:12;4.50;;;1.58;;
37609;SDS011;23457;51.966;8.230;2022-07-03T13:37:39;3.15;;;1.38;;
37609;SDS011;23457;51.966;8.230;2022-07-03T13:40:05;5.22;;;1.40;;
37609;SDS011;23457;51.966;8.230;2022-07-03T13:42:32;5.63;;;1.67;;
37609;SDS011;23457;51.966;8.230;2022-07-03T13:44:59;3.15;;;1.27;;
37609;SDS011;23457;51.966;8.230;2022-07-03T13:47:25;3.95;;;1.27;;
37609;SDS011;23457;51.966;8.230;2022-07-03T13:49:52;4.82;;;1.55;;
37609;SDS011;23457;51.966;8.230;2022-07-03T13:52:19;4.72;;;1.35;;
37609;SDS011;23457;51.966;8.230;2022-07-03T13:54:45;6.07;;;1.30;;
37609;SDS011;23457;51.966;8.230;2022-07-03T13:57:12;2.03;;;1.20;;
37609;SDS011;23457;51.966;8.230;2022-07-03T13:59:39;3.10;;;1.40;;
37609;SDS011;23457;51.966;8.230;2022-07-03T14:02:06;4.75;;;1.20;;
37609;SDS011;23457;51.966;8.230;2022-07-03T14:04:32;3.42;;;1.13;;
37609;SDS011;23457;51.966;8.230;2022-07-03T14:06:59;2.25;;;1.10;;
37609;SDS011;23457;51.966;8.230;2022-07-03T14:09:25;5.28;;;1.15;;
37609;SDS011;23457;51.966;8.230;2022-07-03T14:11:52;4.10;;;1.25;;
37609;SDS011;23457;51.966;8.230;2022-07-03T14:14:19;2.75;;;1.17;;
37609;SDS011;23457;51.966;8.230;2022-07-03T14:16:45;4.13;;;1.10;;
37609;SDS011;23457;51.966;8.230;2022-07-03T14:19:16;2.65;;;1.08;;
37609;SDS011;23457;51.966;8.230;2022-07-03T14:21:42;2.78;;;0.93;;
37609;SDS011;23457;51.966;8.230;2022-07-03T14:24:09;6.68;;;0.95;;
37609;SDS011;23457;51.966;8.230;2022-07-03T14:26:35;3.38;;;1.27;;
37609;SDS011;23457;51.966;8.230;2022-07-03T14:29:21;2.35;;;1.15;;
37609;SDS011;23457;51.966;8.230;2022-07-03T14:32:06;5.07;;;1.33;;
37609;SDS011;23457;51.966;8.230;2022-07-03T14:34:51;6.95;;;1.20;;
37609;SDS011;23457;51.966;8.230;2022-07-03T14:37:19;3.75;;;1.13;;
37609;SDS011;23457;51.966;8.230;2022-07-03T14:39:46;3.22;;;1.08;;
37609;SDS011;23457;51.966;8.230;2022-07-03T14:42:12;6.80;;;1.33;;
37609;SDS011;23457;51.966;8.230;2022-07-03T14:44:39;2.80;;;1.00;;
37609;SDS011;23457;51.966;8.230;2022-07-03T14:47:06;4.13;;;1.10;;
37609;SDS011;23457;51.966;8.230;2022-07-03T14:49:32;3.45;;;0.93;;
37609;SDS011;23457;51.966;8.230;2022-07-03T14:52:00;6.43;;;1.20;;
37609;SDS011;23457;51.966;8.230;2022-07-03T14:54:28;4.07;;;1.00;;
37609;SDS011;23457;51.966;8.230;2022-07-03T14:56:57;7.28;;;1.17;;
37609;SDS011;23457;51.966;8.230;2022-07-03T15:02:05;1.70;;;1.00;;
37609;SDS011;23457;51.966;8.230;2022-07-03T15:04:40;2.15;;;1.00;;
37609;SDS011;23457;51.966;8.230;2022-07-03T15:07:22;4.07;;;1.02;;
37609;SDS011;23457;51.966;8.230;2022-07-03T15:10:04;4.72;;;0.90;;
37609;SDS011;23457;51.966;8.230;2022-07-03T15:12:33;1.88;;;0.90;;
37609;SDS011;23457;51.966;8.230;2022-07-03T15:15:02;3.10;;;0.77;;
37609;SDS011;23457;51.966;8.230;2022-07-03T15:17:29;2.55;;;1.00;;
37609;SDS011;23457;51.966;8.230;2022-07-03T15:19:59;3.83;;;1.05;;
37609;SDS011;23457;51.966;8.230;2022-07-03T15:22:29;2.15;;;0.82;;
37609;SDS011;23457;51.966;8.230;2022-07-03T15:24:59;2.85;;;1.08;;
37609;SDS011;23457;51.966;8.230;2022-07-03T15:27:28;2.15;;;0.90;;
37609;SDS011;23457;51.966;8.230;2022-07-03T15:29:55;3.17;;;1.00;;
37609;SDS011;23457;51.966;8.230;2022-07-03T15:32:23;1.85;;;0.75;;
37609;SDS011;23457;51.966;8.230;2022-07-03T15:34:51;1.30;;;0.82;;
37609;SDS011;23457;51.966;8.230;2022-07-03T15:37:23;3.08;;;1.02;;
37609;SDS011;23457;51.966;8.230;2022-07-03T15:45:28;4.30;;;1.15;;
37609;SDS011;23457;51.966;8.230;2022-07-03T15:53:30;4.45;;;1.10;;
37609;SDS011;23457;51.966;8.230;2022-07-03T15:56:04;2.03;;;0.80;;
37609;SDS011;23457;51.966;8.230;2022-07-03T15:58:32;3.28;;;1.10;;
37609;SDS011;23457;51.966;8.230;2022-07-03T16:01:02;2.83;;;0.75;;
37609;SDS011;23457;51.966;8.230;2022-07-03T16:04:10;1.40;;;0.68;;
37609;SDS011;23457;51.966;8.230;2022-07-03T16:06:53;2.25;;;0.88;;
37609;SDS011;23457;51.966;8.230;2022-07-03T16:09:20;2.92;;;1.02;;
37609;SDS011;23457;51.966;8.230;2022-07-03T16:11:48;2.67;;;0.90;;
37609;SDS011;23457;51.966;8.230;2022-07-03T16:14:16;3.30;;;1.23;;
37609;SDS011;23457;51.966;8.230;2022-07-03T16:16:43;2.63;;;0.88;;
37609;SDS011;23457;51.966;8.230;2022-07-03T16:19:15;3.00;;;0.95;;
37609;SDS011;23457;51.966;8.230;2022-07-03T16:21:44;2.17;;;0.70;;
37609;SDS011;23457;51.966;8.230;2022-07-03T16:24:11;2.33;;;0.90;;
37609;SDS011;23457;51.966;8.230;2022-07-03T16:26:38;1.65;;;0.73;;
37609;SDS011;23457;51.966;8.230;2022-07-03T16:29:04;1.80;;;0.90;;
37609;SDS011;23457;51.966;8.230;2022-07-03T16:31:32;3.80;;;0.85;;
37609;SDS011;23457;51.966;8.230;2022-07-03T16:34:28;2.53;;;0.88;;
37609;SDS011;23457;51.966;8.230;2022-07-03T16:37:06;6.53;;;1.00;;
37609;SDS011;23457;51.966;8.230;2022-07-03T16:39:35;2.20;;;0.70;;
37609;SDS011;23457;51.966;8.230;2022-07-03T16:42:05;2.92;;;0.93;;
37609;SDS011;23457;51.966;8.230;2022-07-03T16:44:34;4.20;;;1.00;;
37609;SDS011;23457;51.966;8.230;2022-07-03T16:47:03;2.33;;;0.82;;
37609;SDS011;23457;51.966;8.230;2022-07-03T16:49:31;2.25;;;0.80;;
37609;SDS011;23457;51.966;8.230;2022-07-03T16:52:03;3.38;;;0.82;;
37609;SDS011;23457;51.966;8.230;2022-07-03T16:54:31;3.13;;;1.02;;